createdAt,value
2019-02-05T00:03:53.963Z,96.40
2019-02-05T00:08:58.337Z,96.50
2019-02-05T00:14:00.065Z,96.50
2019-02-05T00:19:01.901Z,96.40
2019-02-05T00:24:04.149Z,96.40
2019-02-05T00:29:05.908Z,96.50
2019-02-05T00:34:09.626Z,96.40
2019-02-05T00:39:11.291Z,96.40
2019-02-05T00:44:12.623Z,96.40
2019-02-05T00:49:13.964Z,96.40
2019-02-05T00:54:15.867Z,96.40
2019-02-05T00:59:17.739Z,96.40
2019-02-05T01:04:19.133Z,96.40
2019-02-05T01:09:20.620Z,96.40
2019-02-05T01:14:22.512Z,96.40
2019-02-05T01:19:24.119Z,96.40
2019-02-05T01:24:25.455Z,96.40
2019-02-05T01:29:27.652Z,96.40
2019-02-05T01:34:29.060Z,96.40
2019-02-05T01:39:30.827Z,96.40
2019-02-05T01:44:32.125Z,96.40
2019-02-05T01:49:36.816Z,96.40
2019-02-05T01:54:38.227Z,96.40
2019-02-05T01:59:40.698Z,96.40
2019-02-05T02:04:42.038Z,96.70
2019-02-05T02:09:43.527Z,96.40
2019-02-05T02:14:45.652Z,96.40
2019-02-05T02:19:47.405Z,96.40
2019-02-05T02:24:48.717Z,96.40
2019-02-05T02:29:50.052Z,96.40
2019-02-05T02:34:51.371Z,96.40
2019-02-05T02:39:55.258Z,96.40
2019-02-05T02:44:58.590Z,96.40
2019-02-05T02:49:59.983Z,96.70
2019-02-05T02:55:01.370Z,96.40
2019-02-05T03:00:08.056Z,96.40
2019-02-05T03:05:12.788Z,96.40
2019-02-05T03:10:23.783Z,96.40
2019-02-05T03:15:25.292Z,96.40
2019-02-05T03:20:26.574Z,96.70
2019-02-05T03:25:29.706Z,96.40
2019-02-05T03:30:31.203Z,96.40
2019-02-05T03:35:32.712Z,96.40
2019-02-05T03:40:57.846Z,96.40
2019-02-05T03:45:59.475Z,96.40
2019-02-05T03:56:21.693Z,96.40
2019-02-05T04:01:51.862Z,96.40
2019-02-05T04:07:32.545Z,96.40
2019-02-05T04:13:22.697Z,96.40
2019-02-05T04:18:51.035Z,96.40
2019-02-05T04:24:07.271Z,96.40
2019-02-05T04:29:37.440Z,96.40
2019-02-05T04:35:12.150Z,96.40
2019-02-05T04:40:31.933Z,96.40
2019-02-05T04:45:56.699Z,96.40
2019-02-05T04:51:18.422Z,96.40
2019-02-05T04:56:40.782Z,96.40
2019-02-05T05:01:47.899Z,96.40
2019-02-05T05:07:35.584Z,96.40
2019-02-05T05:12:39.514Z,96.40
2019-02-05T05:17:42.758Z,96.40
2019-02-05T05:22:44.398Z,96.40
2019-02-05T05:27:45.665Z,96.40
2019-02-05T05:33:05.596Z,96.40
2019-02-05T05:38:07.010Z,96.40
2019-02-05T05:43:08.488Z,96.40
2019-02-05T05:48:10.056Z,96.70
2019-02-05T05:53:11.388Z,96.40
2019-02-05T05:58:22.281Z,96.40
2019-02-05T06:03:22.881Z,96.40
2019-02-05T06:08:24.201Z,96.40
2019-02-05T06:13:25.603Z,96.50
2019-02-05T06:18:27.521Z,96.50
2019-02-05T06:23:28.948Z,96.50
2019-02-05T06:28:34.654Z,96.50
2019-02-05T06:33:33.596Z,96.50
2019-02-05T06:38:35.744Z,96.50
2019-02-05T06:43:37.118Z,96.50
2019-02-05T06:48:38.514Z,96.50
2019-02-05T06:53:39.906Z,96.40
2019-02-05T06:58:46.632Z,96.50
2019-02-05T07:03:44.440Z,96.50
2019-02-05T07:08:45.910Z,96.50
2019-02-05T07:13:47.428Z,96.50
2019-02-05T07:18:49.252Z,96.50
2019-02-05T07:23:51.521Z,96.50
2019-02-05T07:29:00.011Z,96.60
2019-02-05T07:33:56.674Z,96.60
2019-02-05T07:38:58.986Z,96.60
2019-02-05T07:44:02.036Z,97.00
2019-02-05T07:49:03.512Z,96.60
2019-02-05T07:54:23.433Z,96.60
2019-02-05T07:59:25.242Z,96.60
2019-02-05T08:04:26.584Z,96.60
2019-02-05T08:09:28.013Z,96.70
2019-02-05T08:14:31.240Z,96.70
2019-02-05T08:19:36.085Z,96.70
2019-02-05T08:24:37.469Z,96.70
2019-02-05T08:29:39.279Z,96.70
2019-02-05T08:34:43.970Z,96.70
2019-02-05T08:39:48.187Z,96.80
2019-02-05T08:44:49.573Z,96.80
2019-02-05T08:49:50.982Z,96.70
2019-02-05T08:54:52.718Z,96.80
2019-02-05T08:59:55.918Z,96.80
2019-02-05T09:04:57.977Z,96.80
2019-02-05T09:10:03.328Z,96.70
2019-02-05T09:15:29.516Z,96.80
2019-02-05T09:20:29.098Z,96.80
2019-02-05T09:25:34.477Z,96.80
2019-02-05T09:30:35.965Z,96.80
2019-02-05T09:35:38.361Z,96.80
2019-02-05T09:40:39.898Z,96.80
2019-02-05T09:45:41.304Z,96.80
2019-02-05T09:50:45.002Z,96.70
2019-02-05T09:55:47.562Z,96.70
2019-02-05T10:00:51.926Z,96.70
2019-02-05T10:05:53.355Z,96.70
2019-02-05T10:10:57.798Z,96.70
2019-02-05T10:16:00.294Z,96.70
2019-02-05T10:21:03.102Z,96.70
2019-02-05T10:26:06.277Z,96.70
2019-02-05T10:31:07.856Z,96.70
2019-02-05T10:36:10.280Z,96.80
2019-02-05T10:41:11.926Z,96.70
2019-02-05T10:46:15.561Z,96.60
2019-02-05T10:51:20.473Z,96.70
2019-02-05T10:56:24.142Z,96.60
2019-02-05T11:01:26.103Z,96.50
2019-02-05T11:06:27.648Z,96.40
2019-02-05T11:11:29.479Z,96.30
2019-02-05T11:16:30.958Z,96.30
2019-02-05T11:21:32.428Z,96.30
2019-02-05T11:26:36.886Z,96.20
2019-02-05T11:31:39.162Z,96.30
2019-02-05T11:36:40.672Z,96.20
2019-02-05T11:41:42.174Z,96.10
2019-02-05T11:46:46.785Z,96.10
2019-02-05T11:51:52.118Z,96.10
2019-02-05T11:56:54.495Z,96.10
2019-02-05T12:01:59.049Z,96.00
2019-02-05T12:07:00.934Z,96.00
2019-02-05T12:12:02.552Z,95.90
2019-02-05T12:17:06.722Z,95.90
2019-02-05T12:22:08.733Z,95.90
2019-02-05T12:27:10.268Z,95.90
2019-02-05T12:32:12.043Z,95.80
2019-02-05T12:37:13.364Z,95.80
2019-02-05T12:42:14.719Z,95.80
2019-02-05T12:47:16.501Z,95.70
2019-02-05T12:52:18.054Z,95.80
2019-02-05T12:57:25.126Z,95.80
2019-02-05T13:02:30.523Z,95.80
2019-02-05T13:07:33.676Z,95.70
2019-02-05T13:12:35.050Z,95.70
2019-02-05T13:17:39.987Z,95.60
2019-02-05T13:22:42.048Z,95.50
2019-02-05T13:27:43.552Z,95.30
2019-02-05T13:32:45.317Z,95.30
2019-02-05T13:37:47.546Z,95.30
2019-02-05T13:42:49.030Z,95.20
2019-02-05T13:47:50.430Z,95.10
2019-02-05T13:52:52.058Z,95.00
2019-02-05T13:57:53.461Z,94.90
2019-02-05T14:02:54.929Z,95.00
2019-02-05T14:07:56.999Z,95.00
2019-02-05T14:12:58.792Z,94.90
2019-02-05T14:18:00.778Z,94.80
2019-02-05T14:23:02.078Z,94.70
2019-02-05T14:28:04.072Z,94.70
2019-02-05T14:33:06.026Z,94.50
2019-02-05T14:38:09.172Z,94.70
2019-02-05T14:43:14.665Z,94.50
2019-02-05T14:48:17.617Z,94.50
2019-02-05T14:53:19.285Z,94.50
2019-02-05T14:58:20.940Z,94.50
2019-02-05T15:03:22.341Z,94.50
2019-02-05T15:08:27.500Z,94.50
2019-02-05T15:13:29.861Z,94.40
2019-02-05T15:18:31.179Z,94.40
2019-02-05T15:23:32.684Z,94.40
2019-02-05T15:28:34.050Z,94.30
2019-02-05T15:33:40.136Z,94.30
2019-02-05T15:38:42.052Z,94.30
2019-02-05T15:43:43.537Z,94.10
2019-02-05T15:48:46.759Z,94.10
2019-02-05T15:53:50.152Z,94.10
2019-02-05T15:58:51.502Z,94.00
2019-02-05T16:03:52.843Z,94.00
2019-02-05T16:08:54.288Z,93.90
2019-02-05T16:13:57.440Z,93.80
2019-02-05T16:18:59.754Z,93.80
2019-02-05T16:24:01.610Z,93.80
2019-02-05T16:29:05.573Z,93.70
2019-02-05T16:34:07.472Z,93.70
2019-02-05T16:39:11.275Z,93.70
2019-02-05T16:44:12.662Z,93.90
2019-02-05T16:49:14.118Z,93.70
2019-02-05T16:54:16.123Z,93.70
2019-02-05T16:59:18.089Z,93.80
2019-02-05T17:04:19.512Z,93.90
2019-02-05T17:09:21.201Z,93.90
2019-02-05T17:14:22.786Z,93.90
2019-02-05T17:19:24.098Z,94.00
2019-02-05T17:24:25.463Z,94.00
2019-02-05T17:29:26.794Z,93.90
2019-02-05T17:34:31.529Z,93.80
2019-02-05T17:39:32.948Z,93.80
2019-02-05T17:44:35.214Z,93.90
2019-02-05T17:49:36.568Z,94.00
2019-02-05T17:54:38.355Z,94.10
2019-02-05T17:59:40.722Z,94.10
2019-02-05T18:04:42.441Z,94.10
2019-02-05T18:09:43.889Z,94.20
2019-02-05T18:14:45.240Z,94.10
2019-02-05T18:19:46.984Z,94.00
2019-02-05T18:24:48.357Z,93.90
2019-02-05T18:29:50.108Z,94.00
2019-02-05T18:34:51.749Z,94.10
2019-02-05T18:39:53.724Z,94.10
2019-02-05T18:44:55.600Z,94.10
2019-02-05T18:49:56.911Z,94.20
2019-02-05T18:55:00.360Z,94.20
2019-02-05T19:00:12.426Z,94.40
2019-02-05T19:05:13.958Z,94.30
2019-02-05T19:10:24.975Z,94.30
2019-02-05T19:15:30.275Z,94.40
2019-02-05T19:20:31.832Z,94.40
2019-02-05T19:25:35.102Z,94.30
2019-02-05T19:30:40.673Z,94.30
2019-02-05T19:35:44.690Z,94.30
2019-02-05T19:40:56.796Z,94.60
2019-02-05T19:46:03.873Z,95.10
2019-02-05T19:51:05.346Z,95.40
2019-02-05T19:56:06.765Z,95.60
2019-02-05T20:01:09.550Z,95.80
2019-02-05T20:06:10.937Z,95.80
2019-02-05T20:11:12.628Z,95.90
2019-02-05T20:16:14.362Z,95.80
2019-02-05T20:21:17.661Z,95.90
2019-02-05T20:26:19.125Z,95.80
2019-02-05T20:31:20.719Z,95.60
2019-02-05T20:36:28.987Z,95.40
2019-02-05T20:41:30.422Z,95.20
2019-02-05T20:46:31.875Z,95.40
2019-02-05T20:51:33.228Z,94.90
2019-02-05T20:56:34.891Z,95.10
2019-02-05T21:01:36.294Z,95.20
2019-02-05T21:06:37.849Z,95.10
2019-02-05T21:11:39.886Z,95.20
2019-02-05T21:16:41.368Z,95.20
2019-02-05T21:21:43.311Z,95.10
2019-02-05T21:26:46.663Z,95.20
2019-02-05T21:31:48.102Z,95.20
2019-02-05T21:36:49.654Z,95.30
2019-02-05T21:41:51.402Z,95.20
2019-02-05T21:46:54.139Z,95.20
2019-02-05T21:51:57.101Z,95.40
2019-02-05T21:56:58.423Z,95.30
2019-02-05T22:01:59.865Z,95.40
2019-02-05T22:07:01.549Z,95.40
2019-02-05T22:12:03.171Z,95.50
2019-02-05T22:17:04.698Z,95.60
2019-02-05T22:22:06.185Z,95.60
2019-02-05T22:27:07.583Z,95.50
2019-02-05T22:32:09.075Z,95.70
2019-02-05T22:37:10.417Z,95.80
2019-02-05T22:42:12.405Z,95.80
2019-02-05T22:47:14.246Z,95.70
2019-02-05T22:52:15.711Z,95.90
2019-02-05T22:57:17.154Z,96.00
2019-02-05T23:02:18.605Z,96.00
2019-02-05T23:07:20.069Z,96.00
2019-02-05T23:12:32.809Z,96.00
2019-02-05T23:17:34.156Z,95.90
2019-02-05T23:22:35.452Z,95.80
2019-02-05T23:27:37.162Z,95.80
2019-02-05T23:32:38.497Z,95.90
2019-02-05T23:37:39.815Z,95.80
2019-02-05T23:42:41.414Z,95.80
2019-02-05T23:47:44.776Z,95.70
2019-02-05T23:52:46.073Z,95.70
2019-02-05T23:57:48.940Z,95.60
